O23 weather

Pinnacles Ranch Airport
Paicines, California, United States

Public forecast

Using degrees Fahrenheit for public forecast. Weather courtesy of forecast.io.

Closest aviation weather report (METAR) to Pinnacles Ranch Airport

Closest report is Salinas Municipal Airport, 24.5 nm (45.3 km) WNW. Retrieved 2019/10/14 18:53 UTC (14 minutes ago):

KSNS 141853Z 00000KT 10SM CLR 15/04 A3000 RMK AO2 SLP167 T01500044

Closest aviation forecast (TAF) to Pinnacles Ranch Airport

Closest forecast is Salinas Municipal Airport, 24.5 nm (45.3 km) WNW. Retrieved 2019/10/14 18:42 UTC (25 minutes ago):

TAF KSNS 141739Z 1418/1518 VRB06KT P6SM FEW010 FM141900 28011KT P6SM SKC FM150300 31006KT P6SM FEW009 FM150800 12005KT P6SM BKN006 FM151600 12005KT P6SM SCT006